Time;durP1;ratioP1;P1;durP2;ratioP2;P2;SDS_P1;SDS_P2;PMS_P1;PMS_P2;Temp;Humidity;BMP_temperature;BMP_pressure;BME280_temperature;BME280_humidity;BME280_pressure;Samples;Min_cycle;Max_cycle;Signal;HPM_P1;HPM_P2
2022/02/01 00:02:12;;;;;;;;;;;6.90;99.90;;;;;;5076300;28;19912;-78
2022/02/01 00:04:50;;;;;;;;;;;6.90;99.90;;;;;;5057783;28;19974;-79
2022/02/01 00:07:35;;;;;;;;;;;6.90;99.90;;;;;;5057677;28;19915;-78
2022/02/01 00:13:01;;;;;;;;;;;7.10;99.90;;;;;;5075527;28;19970;-79
2022/02/01 00:18:24;;;;;;;;;;;7.10;99.90;;;;;;5075726;28;19964;-79
2022/02/01 00:37:18;;;;;;;;;;;7.80;99.90;;;;;;5075086;28;19916;-78
2022/02/01 00:39:45;;;;;;;;;;;7.80;99.90;;;;;;5075565;28;20380;-79
2022/02/01 00:42:12;;;;;;;;;;;7.80;99.90;;;;;;5075162;28;19913;-79
2022/02/01 00:44:37;;;;;;;;;;;7.70;99.90;;;;;;5057235;28;19916;-79
2022/02/01 00:47:03;;;;;;;;;;;7.80;99.90;;;;;;5057156;28;19908;-79
2022/02/01 00:49:30;;;;;;;;;;;7.90;99.90;;;;;;5075061;28;20003;-79
2022/02/01 00:51:55;;;;;;;;;;;7.70;99.90;;;;;;5075345;28;19912;-78
2022/02/01 00:54:21;;;;;;;;;;;7.50;99.90;;;;;;5074953;28;19915;-79
2022/02/01 00:56:47;;;;;;;;;;;7.40;99.90;;;;;;5075207;28;19916;-78
2022/02/01 00:59:12;;;;;;;;;;;7.40;99.90;;;;;;5074933;28;19957;-78
2022/02/01 01:01:38;;;;;;;;;;;7.40;99.90;;;;;;5074917;28;19909;-78
2022/02/01 01:04:03;;;;;;;;;;;7.60;99.90;;;;;;5075015;28;19909;-78
2022/02/01 01:06:29;;;;;;;;;;;7.40;99.90;;;;;;5074996;28;19954;-78
2022/02/01 01:08:55;;;;;;;;;;;7.50;99.90;;;;;;5074781;28;20265;-78
2022/02/01 01:11:21;;;;;;;;;;;7.60;99.90;;;;;;5074621;28;19916;-79
2022/02/01 01:38:43;;;;;;;;;;;7.50;99.90;;;;;;5075147;28;19958;-79
2022/02/01 01:43:45;;;;;;;;;;;8.10;99.90;;;;;;5073121;28;19962;-79
2022/02/01 01:54:23;;;;;;;;;;;8.20;99.90;;;;;;5074175;28;19916;-79
2022/02/01 01:56:49;;;;;;;;;;;8.10;99.90;;;;;;5055870;28;19909;-79
2022/02/01 01:59:15;;;;;;;;;;;8.00;99.90;;;;;;5073801;28;19908;-79
2022/02/01 02:01:42;;;;;;;;;;;8.00;99.90;;;;;;5073356;28;20442;-78
2022/02/01 02:04:08;;;;;;;;;;;8.00;99.90;;;;;;5073783;28;19915;-78
2022/02/01 02:06:34;;;;;;;;;;;7.90;99.90;;;;;;5055742;28;20272;-78
2022/02/01 02:09:02;;;;;;;;;;;8.00;99.90;;;;;;5073691;28;19915;-78
2022/02/01 02:11:40;;;;;;;;;;;8.00;99.90;;;;;;5073574;28;19956;-78
2022/02/01 02:14:20;;;;;;;;;;;8.00;99.90;;;;;;5073916;28;19924;-79
2022/02/01 02:16:53;;;;;;;;;;;8.10;99.90;;;;;;5073610;28;19916;-78
2022/02/01 02:19:20;;;;;;;;;;;8.00;99.90;;;;;;5073487;28;20325;-78
2022/02/01 02:21:48;;;;;;;;;;;7.90;99.90;;;;;;5073540;28;19909;-78
2022/02/01 02:24:13;;;;;;;;;;;7.80;99.90;;;;;;5073544;28;19915;-78
2022/02/01 02:26:39;;;;;;;;;;;7.80;99.90;;;;;;5073486;28;19909;-78
2022/02/01 02:29:05;;;;;;;;;;;7.80;99.90;;;;;;5073535;28;19908;-79
2022/02/01 02:31:36;;;;;;;;;;;7.80;99.90;;;;;;5073397;28;19919;-78
2022/02/01 02:34:07;;;;;;;;;;;7.80;99.90;;;;;;5073642;28;19909;-79
2022/02/01 02:36:36;;;;;;;;;;;7.80;99.90;;;;;;5055087;28;20284;-79
2022/02/01 02:39:10;;;;;;;;;;;7.80;99.90;;;;;;5073366;28;19913;-78
2022/02/01 02:41:48;;;;;;;;;;;7.90;99.90;;;;;;5073483;28;19991;-79
2022/02/01 02:46:58;;;;;;;;;;;7.90;99.90;;;;;;5073492;28;19916;-79
2022/02/01 02:49:24;;;;;;;;;;;7.90;99.90;;;;;;5072892;28;19908;-79
2022/02/01 02:51:50;;;;;;;;;;;7.70;99.90;;;;;;5073386;28;19965;-79
2022/02/01 02:54:17;;;;;;;;;;;7.90;99.90;;;;;;5073140;28;19909;-79
2022/02/01 02:56:47;;;;;;;;;;;7.80;99.90;;;;;;5076776;28;19908;-79
2022/02/01 02:59:13;;;;;;;;;;;7.70;99.90;;;;;;5077262;28;19909;-78
2022/02/01 03:01:39;;;;;;;;;;;7.80;99.90;;;;;;5077197;28;19962;-79
2022/02/01 03:04:05;;;;;;;;;;;7.80;99.90;;;;;;5059483;28;20394;-79
2022/02/01 03:06:31;;;;;;;;;;;7.70;99.90;;;;;;5077175;28;19944;-78
2022/02/01 03:08:56;;;;;;;;;;;7.80;99.90;;;;;;5077228;28;19912;-79
2022/02/01 03:11:22;;;;;;;;;;;7.90;99.90;;;;;;5077095;28;20311;-79
2022/02/01 03:13:56;;;;;;;;;;;7.90;99.90;;;;;;5077243;28;20364;-79
2022/02/01 03:21:32;;;;;;;;;;;7.90;99.90;;;;;;5076944;28;19922;-79
2022/02/01 03:23:58;;;;;;;;;;;7.80;99.90;;;;;;5076799;28;19908;-79
2022/02/01 03:26:23;;;;;;;;;;;7.80;99.90;;;;;;5076740;28;19909;-79
2022/02/01 03:28:49;;;;;;;;;;;7.80;99.90;;;;;;5076654;28;20360;-79
2022/02/01 03:31:14;;;;;;;;;;;7.80;99.90;;;;;;5076503;28;20373;-79
2022/02/01 03:33:40;;;;;;;;;;;7.70;99.90;;;;;;5058705;28;19912;-79
2022/02/01 03:36:06;;;;;;;;;;;7.70;99.90;;;;;;5076541;28;19913;-78
2022/02/01 03:38:32;;;;;;;;;;;7.60;99.90;;;;;;5076510;28;19919;-79
2022/02/01 03:40:57;;;;;;;;;;;7.60;99.90;;;;;;5076477;28;20280;-79
2022/02/01 03:43:23;;;;;;;;;;;7.60;99.90;;;;;;5076393;28;19952;-78
2022/02/01 03:45:48;;;;;;;;;;;7.70;99.90;;;;;;5076552;28;19914;-79
2022/02/01 03:48:14;;;;;;;;;;;7.70;99.90;;;;;;5076366;28;20270;-78
2022/02/01 03:50:40;;;;;;;;;;;7.80;99.90;;;;;;5058247;28;19916;-79
2022/02/01 03:53:07;;;;;;;;;;;7.80;99.90;;;;;;5076151;28;20422;-79
2022/02/01 03:55:33;;;;;;;;;;;7.90;99.90;;;;;;5076411;28;19909;-78
2022/02/01 03:57:58;;;;;;;;;;;7.90;99.90;;;;;;5076095;28;19961;-78
2022/02/01 04:00:24;;;;;;;;;;;7.90;99.90;;;;;;5058179;28;19909;-79
2022/02/01 04:02:49;;;;;;;;;;;7.90;99.90;;;;;;5076069;28;19916;-79
2022/02/01 04:05:15;;;;;;;;;;;8.10;99.90;;;;;;5076033;28;19932;-78
2022/02/01 04:07:46;;;;;;;;;;;8.00;99.90;;;;;;5074862;28;19912;-79
2022/02/01 04:10:11;;;;;;;;;;;7.90;99.90;;;;;;5057604;28;19940;-79
2022/02/01 04:12:39;;;;;;;;;;;7.90;99.90;;;;;;5075961;28;20012;-79
2022/02/01 04:15:05;;;;;;;;;;;7.90;99.90;;;;;;5075662;28;20006;-79
2022/02/01 04:17:31;;;;;;;;;;;7.90;99.90;;;;;;5057782;28;19912;-79
2022/02/01 04:19:56;;;;;;;;;;;7.90;99.90;;;;;;5075951;28;20444;-79
2022/02/01 04:22:22;;;;;;;;;;;8.00;99.90;;;;;;5076035;28;19915;-79
2022/02/01 04:24:47;;;;;;;;;;;8.00;99.90;;;;;;5075662;28;20339;-79
2022/02/01 04:27:30;;;;;;;;;;;7.90;99.90;;;;;;5075768;28;19987;-79
2022/02/01 04:30:08;;;;;;;;;;;8.00;99.90;;;;;;5075574;28;20430;-79
2022/02/01 04:32:34;;;;;;;;;;;8.00;99.90;;;;;;5075734;28;19916;-79
2022/02/01 04:35:00;;;;;;;;;;;8.00;99.90;;;;;;5075506;28;19908;-78
2022/02/01 04:37:29;;;;;;;;;;;7.90;99.90;;;;;;5075436;28;19914;-79
2022/02/01 04:39:55;;;;;;;;;;;8.00;99.90;;;;;;5057388;28;19912;-79
2022/02/01 04:42:21;;;;;;;;;;;8.00;99.90;;;;;;5075780;28;20003;-79
2022/02/01 04:44:46;;;;;;;;;;;8.00;99.90;;;;;;5075313;28;19951;-78
2022/02/01 04:47:12;;;;;;;;;;;8.00;99.90;;;;;;5075430;28;19908;-79
2022/02/01 04:49:38;;;;;;;;;;;8.10;99.90;;;;;;5075292;28;19939;-79
2022/02/01 04:52:04;;;;;;;;;;;8.00;99.90;;;;;;5057056;28;19969;-79
2022/02/01 04:54:29;;;;;;;;;;;8.00;99.90;;;;;;5075354;28;20280;-78
2022/02/01 04:56:55;;;;;;;;;;;7.90;99.90;;;;;;5075297;28;19955;-78
2022/02/01 04:59:20;;;;;;;;;;;7.80;99.90;;;;;;5057053;28;19916;-78
2022/02/01 05:01:46;;;;;;;;;;;7.90;99.90;;;;;;5074916;28;19999;-78
2022/02/01 05:04:17;;;;;;;;;;;8.00;99.90;;;;;;5075236;28;19909;-78
2022/02/01 05:06:43;;;;;;;;;;;8.00;99.90;;;;;;5056586;28;19908;-79
2022/02/01 05:09:10;;;;;;;;;;;8.10;99.90;;;;;;5074756;28;20435;-78
2022/02/01 05:11:35;;;;;;;;;;;8.10;99.90;;;;;;5074612;28;19916;-79
2022/02/01 05:14:13;;;;;;;;;;;8.00;99.90;;;;;;5074423;28;20315;-79
2022/02/01 05:19:35;;;;;;;;;;;8.00;99.90;;;;;;5074118;28;19912;-78
2022/02/01 05:22:06;;;;;;;;;;;8.00;99.90;;;;;;5073756;28;20190;-79
2022/02/01 05:24:35;;;;;;;;;;;8.00;99.90;;;;;;5056454;28;19948;-78
2022/02/01 05:27:03;;;;;;;;;;;8.00;99.90;;;;;;5074410;28;19912;-78
2022/02/01 05:29:29;;;;;;;;;;;8.00;99.90;;;;;;5074345;28;19908;-78
2022/02/01 05:31:56;;;;;;;;;;;8.00;99.90;;;;;;5056299;28;19918;-79
2022/02/01 05:34:22;;;;;;;;;;;7.90;99.90;;;;;;5056299;28;19908;-79
2022/02/01 05:36:48;;;;;;;;;;;8.00;99.90;;;;;;5074220;28;19958;-79
2022/02/01 05:39:18;;;;;;;;;;;8.00;99.90;;;;;;5074170;28;19999;-79
2022/02/01 05:41:44;;;;;;;;;;;8.00;99.90;;;;;;5074101;28;19955;-79
2022/02/01 05:44:10;;;;;;;;;;;8.00;99.90;;;;;;5056061;28;20077;-79
2022/02/01 05:46:36;;;;;;;;;;;8.00;99.90;;;;;;5056106;28;19908;-78
2022/02/01 05:49:03;;;;;;;;;;;8.00;99.90;;;;;;5074149;28;19909;-78
2022/02/01 05:51:28;;;;;;;;;;;8.00;99.90;;;;;;5073858;28;19912;-78
2022/02/01 05:53:54;;;;;;;;;;;8.00;99.90;;;;;;5073875;28;19915;-79
2022/02/01 05:56:19;;;;;;;;;;;8.10;99.90;;;;;;5074193;28;19999;-79
2022/02/01 05:58:45;;;;;;;;;;;8.10;99.90;;;;;;5074122;28;20373;-78
2022/02/01 06:01:11;;;;;;;;;;;8.00;99.90;;;;;;5073430;28;19916;-79
2022/02/01 06:03:36;;;;;;;;;;;8.00;99.90;;;;;;5073831;28;20002;-79
2022/02/01 06:06:02;;;;;;;;;;;8.00;99.90;;;;;;5073972;28;20437;-78
2022/02/01 06:08:28;;;;;;;;;;;8.00;99.90;;;;;;5073692;28;19909;-79
2022/02/01 06:10:54;;;;;;;;;;;8.10;99.90;;;;;;5055480;28;19913;-79
2022/02/01 06:13:19;;;;;;;;;;;8.10;99.90;;;;;;5073643;28;19912;-79
2022/02/01 06:15:45;;;;;;;;;;;8.10;99.90;;;;;;5073190;28;19924;-79
2022/02/01 06:18:10;;;;;;;;;;;8.10;99.90;;;;;;5073950;28;19922;-79
2022/02/01 06:20:36;;;;;;;;;;;8.10;99.90;;;;;;5073894;28;19909;-78
2022/02/01 06:23:02;;;;;;;;;;;8.20;99.90;;;;;;5073527;28;19912;-79
2022/02/01 06:28:08;;;;;;;;;;;8.30;99.90;;;;;;5073215;28;19954;-78
2022/02/01 06:30:34;;;;;;;;;;;8.30;99.90;;;;;;5072844;28;19912;-79
2022/02/01 06:32:59;;;;;;;;;;;8.20;99.90;;;;;;5073472;28;19909;-79
2022/02/01 06:35:25;;;;;;;;;;;8.20;99.90;;;;;;5073449;28;19909;-79
2022/02/01 06:37:51;;;;;;;;;;;8.30;99.90;;;;;;5073361;28;19913;-78
2022/02/01 06:40:18;;;;;;;;;;;8.30;99.90;;;;;;5055409;28;19908;-78
2022/02/01 06:42:44;;;;;;;;;;;8.30;99.90;;;;;;5073502;28;20415;-79
2022/02/01 06:45:10;;;;;;;;;;;8.30;99.90;;;;;;5073303;28;19909;-78
2022/02/01 06:47:35;;;;;;;;;;;8.40;99.90;;;;;;5073523;28;19966;-79
2022/02/01 06:50:01;;;;;;;;;;;8.40;99.90;;;;;;5072890;28;20386;-79
2022/02/01 06:52:29;;;;;;;;;;;8.50;99.90;;;;;;5073379;28;19912;-78
2022/02/01 06:54:54;;;;;;;;;;;8.50;99.90;;;;;;5073243;28;19975;-79
2022/02/01 06:57:20;;;;;;;;;;;8.50;99.90;;;;;;5073259;28;19920;-78
2022/02/01 06:59:45;;;;;;;;;;;8.50;99.90;;;;;;5073182;28;20376;-79
2022/02/01 07:02:11;;;;;;;;;;;8.50;99.90;;;;;;5073150;28;19912;-79
2022/02/01 07:04:36;;;;;;;;;;;8.40;99.90;;;;;;5073001;28;19908;-78
2022/02/01 07:07:02;;;;;;;;;;;8.50;99.90;;;;;;5073128;28;20373;-78
2022/02/01 07:09:32;;;;;;;;;;;8.60;99.90;;;;;;5073090;28;20001;-78
2022/02/01 07:11:58;;;;;;;;;;;8.60;99.90;;;;;;5054968;28;19977;-79
2022/02/01 07:14:24;;;;;;;;;;;8.50;99.90;;;;;;5072960;28;19920;-79
2022/02/01 07:16:49;;;;;;;;;;;8.40;99.90;;;;;;5073013;28;19919;-79
2022/02/01 07:19:15;;;;;;;;;;;8.40;99.90;;;;;;5054968;28;20001;-78
2022/02/01 07:21:40;;;;;;;;;;;8.40;99.90;;;;;;5072977;28;19913;-79
2022/02/01 07:24:12;;;;;;;;;;;8.40;99.90;;;;;;5073022;28;19934;-78
2022/02/01 07:26:40;;;;;;;;;;;8.40;99.90;;;;;;5054728;28;19909;-78
2022/02/01 07:29:05;;;;;;;;;;;8.40;99.90;;;;;;5072859;28;19999;-78
2022/02/01 07:31:31;;;;;;;;;;;8.40;99.90;;;;;;5072835;28;19960;-78
2022/02/01 07:33:57;;;;;;;;;;;8.40;99.90;;;;;;5072843;28;19908;-79
2022/02/01 07:36:22;;;;;;;;;;;8.40;99.90;;;;;;5072953;28;20279;-78
2022/02/01 07:38:48;;;;;;;;;;;8.40;99.90;;;;;;5072986;28;19931;-78
2022/02/01 07:41:14;;;;;;;;;;;8.50;99.90;;;;;;5055474;28;20292;-78
2022/02/01 07:43:40;;;;;;;;;;;8.50;99.90;;;;;;5076211;28;19909;-78
2022/02/01 07:46:09;;;;;;;;;;;8.60;99.90;;;;;;5076390;28;20026;-78
2022/02/01 07:48:34;;;;;;;;;;;8.50;99.90;;;;;;5076303;28;20459;-78
2022/02/01 07:51:00;;;;;;;;;;;8.50;99.90;;;;;;5058288;28;19921;-79
2022/02/01 07:53:26;;;;;;;;;;;8.60;99.90;;;;;;5076266;28;20422;-79
2022/02/01 07:55:52;;;;;;;;;;;8.50;99.90;;;;;;5076239;28;19931;-79
2022/02/01 07:58:17;;;;;;;;;;;8.60;99.90;;;;;;5076147;28;19931;-79
2022/02/01 08:00:43;;;;;;;;;;;8.70;99.90;;;;;;5076082;28;19974;-78
2022/02/01 08:03:11;;;;;;;;;;;8.70;99.90;;;;;;5058135;28;19908;-79
2022/02/01 08:05:36;;;;;;;;;;;8.70;99.90;;;;;;5076581;28;19913;-79
2022/02/01 08:08:03;;;;;;;;;;;8.70;99.90;;;;;;5058054;28;19915;-79
2022/02/01 08:10:36;;;;;;;;;;;8.70;99.90;;;;;;5075888;28;20265;-79
2022/02/01 08:20:46;;;;;;;;;;;9.00;99.90;;;;;;5075761;28;19908;-79
2022/02/01 08:23:12;;;;;;;;;;;9.00;99.90;;;;;;5057399;28;19916;-79
2022/02/01 08:25:38;;;;;;;;;;;9.00;99.90;;;;;;5075846;28;19909;-79
2022/02/01 08:28:04;;;;;;;;;;;9.10;99.90;;;;;;5075630;28;19908;-78
2022/02/01 08:30:30;;;;;;;;;;;9.20;99.90;;;;;;5075764;28;19908;-79
2022/02/01 08:32:56;;;;;;;;;;;9.20;99.90;;;;;;5075546;28;19908;-79
2022/02/01 08:35:21;;;;;;;;;;;9.20;99.90;;;;;;5075436;28;20005;-79
2022/02/01 08:37:47;;;;;;;;;;;9.30;99.90;;;;;;5075446;28;19908;-79
2022/02/01 08:40:13;;;;;;;;;;;9.30;99.90;;;;;;5075484;28;20292;-79
2022/02/01 08:42:40;;;;;;;;;;;9.50;99.90;;;;;;5075370;28;19956;-79
2022/02/01 08:45:06;;;;;;;;;;;9.50;99.90;;;;;;5075325;28;19916;-79
2022/02/01 08:47:31;;;;;;;;;;;9.60;99.90;;;;;;5075821;28;19912;-79
2022/02/01 08:49:57;;;;;;;;;;;9.60;99.90;;;;;;5075172;28;19909;-79
2022/02/01 08:52:45;;;;;;;;;;;9.70;99.90;;;;;;5074861;28;20280;-79
2022/02/01 08:55:20;;;;;;;;;;;9.80;99.90;;;;;;5056873;28;19960;-79
2022/02/01 08:57:47;;;;;;;;;;;10.00;99.90;;;;;;5075292;28;19962;-79
2022/02/01 09:00:15;;;;;;;;;;;9.90;99.90;;;;;;5074947;28;19908;-79
2022/02/01 09:02:41;;;;;;;;;;;10.00;99.90;;;;;;5057005;28;19958;-79
2022/02/01 09:05:07;;;;;;;;;;;10.00;99.90;;;;;;5075181;28;19908;-79
2022/02/01 09:07:32;;;;;;;;;;;10.30;99.90;;;;;;5074802;28;19908;-79
2022/02/01 09:09:58;;;;;;;;;;;10.40;99.90;;;;;;5056804;28;20288;-79
2022/02/01 09:12:23;;;;;;;;;;;10.20;99.90;;;;;;5074663;28;20391;-79
2022/02/01 09:14:51;;;;;;;;;;;10.20;99.90;;;;;;5074483;28;19971;-79
2022/02/01 09:17:16;;;;;;;;;;;10.10;99.90;;;;;;5074724;28;20369;-78
2022/02/01 09:19:42;;;;;;;;;;;10.10;99.90;;;;;;5074537;28;19916;-79
2022/02/01 09:22:11;;;;;;;;;;;10.20;99.90;;;;;;5074567;28;19908;-79
2022/02/01 09:24:37;;;;;;;;;;;10.20;99.90;;;;;;5056550;28;19908;-79
2022/02/01 09:27:03;;;;;;;;;;;10.20;99.90;;;;;;5074488;28;19909;-80
2022/02/01 09:29:29;;;;;;;;;;;10.40;99.90;;;;;;5074354;28;19915;-79
2022/02/01 09:31:54;;;;;;;;;;;10.40;99.90;;;;;;5056346;28;19991;-79
2022/02/01 09:34:20;;;;;;;;;;;10.50;99.90;;;;;;5074546;28;19908;-79
2022/02/01 09:36:46;;;;;;;;;;;10.60;99.90;;;;;;5074337;28;19908;-79
2022/02/01 09:39:12;;;;;;;;;;;10.50;99.90;;;;;;5074355;28;19966;-80
2022/02/01 09:41:38;;;;;;;;;;;10.50;99.90;;;;;;5074177;28;19908;-80
2022/02/01 09:44:04;;;;;;;;;;;10.70;99.90;;;;;;5074989;28;19908;-80
2022/02/01 09:46:34;;;;;;;;;;;10.60;99.90;;;;;;5056237;28;19916;-80
2022/02/01 09:49:00;;;;;;;;;;;10.50;99.90;;;;;;5073883;28;19908;-79
2022/02/01 09:51:26;;;;;;;;;;;10.70;99.90;;;;;;5055992;28;20311;-81
2022/02/01 09:53:53;;;;;;;;;;;10.90;99.90;;;;;;5074269;28;20383;-78
2022/02/01 09:56:18;;;;;;;;;;;10.90;99.90;;;;;;5073923;28;20365;-80
2022/02/01 09:58:47;;;;;;;;;;;10.80;99.90;;;;;;5074446;28;19909;-80
2022/02/01 10:01:14;;;;;;;;;;;11.00;99.90;;;;;;5055876;28;19915;-80
2022/02/01 10:03:40;;;;;;;;;;;11.00;99.90;;;;;;5073756;28;19991;-80
2022/02/01 10:06:10;;;;;;;;;;;11.10;99.90;;;;;;5073285;28;19944;-80
2022/02/01 10:08:36;;;;;;;;;;;11.20;99.90;;;;;;5073793;28;19909;-79
2022/02/01 10:11:02;;;;;;;;;;;11.20;99.90;;;;;;5073627;28;20262;-80
2022/02/01 10:13:29;;;;;;;;;;;11.30;99.90;;;;;;5074223;28;19999;-79
2022/02/01 10:16:03;;;;;;;;;;;11.30;99.90;;;;;;5073465;28;19920;-80
2022/02/01 10:18:31;;;;;;;;;;;11.30;99.90;;;;;;5073853;28;19931;-80
2022/02/01 10:21:04;;;;;;;;;;;11.40;99.90;;;;;;5073534;28;20007;-80
2022/02/01 10:23:30;;;;;;;;;;;11.50;99.90;;;;;;5073585;28;20376;-79
2022/02/01 10:26:03;;;;;;;;;;;11.50;99.90;;;;;;5074121;28;20361;-79
2022/02/01 10:28:48;;;;;;;;;;;11.50;99.90;;;;;;5073443;28;19908;-79
2022/02/01 10:31:16;;;;;;;;;;;11.60;99.90;;;;;;5055186;28;20380;-79
2022/02/01 10:36:17;;;;;;;;;;;11.60;99.90;;;;;;5073598;28;20403;-80
2022/02/01 10:38:42;;;;;;;;;;;11.50;99.90;;;;;;5073390;28;20360;-80
2022/02/01 10:41:12;;;;;;;;;;;11.60;99.90;;;;;;5073299;28;19909;-80
2022/02/01 10:43:38;;;;;;;;;;;11.60;99.90;;;;;;5055345;28;19915;-80
2022/02/01 10:46:10;;;;;;;;;;;11.70;99.90;;;;;;5073373;28;19909;-79
2022/02/01 10:48:36;;;;;;;;;;;11.60;99.90;;;;;;5073280;28;19999;-80
2022/02/01 10:51:14;;;;;;;;;;;11.70;99.90;;;;;;5073159;28;19919;-80
2022/02/01 10:53:40;;;;;;;;;;;11.70;99.90;;;;;;5073331;28;19908;-80
2022/02/01 10:56:07;;;;;;;;;;;11.60;99.90;;;;;;5073249;28;19908;-80
2022/02/01 10:58:33;;;;;;;;;;;11.80;99.90;;;;;;5073440;28;19916;-80
2022/02/01 11:00:58;;;;;;;;;;;11.80;99.90;;;;;;5073530;28;19912;-80
2022/02/01 11:03:24;;;;;;;;;;;11.80;99.90;;;;;;5073637;28;20320;-81
2022/02/01 11:05:51;;;;;;;;;;;12.00;99.90;;;;;;5073156;28;19919;-79
2022/02/01 11:08:19;;;;;;;;;;;12.00;99.90;;;;;;5073095;28;20368;-80
2022/02/01 11:10:45;;;;;;;;;;;12.10;99.90;;;;;;5073023;28;19952;-79
2022/02/01 11:13:11;;;;;;;;;;;12.10;99.90;;;;;;5054988;28;19912;-80
2022/02/01 11:15:37;;;;;;;;;;;12.10;99.90;;;;;;5072906;28;20372;-79
2022/02/01 11:18:09;;;;;;;;;;;12.20;99.90;;;;;;5076823;28;19909;-79
2022/02/01 11:20:35;;;;;;;;;;;12.20;99.90;;;;;;5077091;28;20007;-79
2022/02/01 11:23:02;;;;;;;;;;;12.20;99.90;;;;;;5077020;28;19959;-80
2022/02/01 11:25:41;;;;;;;;;;;12.10;99.90;;;;;;5058829;28;19908;-79
2022/02/01 11:30:36;;;;;;;;;;;12.30;99.90;;;;;;5076596;28;19915;-80
2022/02/01 11:33:02;;;;;;;;;;;12.30;99.90;;;;;;5076664;28;20049;-79
2022/02/01 11:35:28;;;;;;;;;;;12.30;99.90;;;;;;5077014;28;20327;-79
2022/02/01 11:37:54;;;;;;;;;;;12.40;99.90;;;;;;5076811;28;19912;-81
2022/02/01 11:40:20;;;;;;;;;;;12.40;99.90;;;;;;5076468;28;19954;-79
2022/02/01 11:42:51;;;;;;;;;;;12.50;99.90;;;;;;5076449;28;19909;-80
2022/02/01 11:45:27;;;;;;;;;;;12.60;99.90;;;;;;5058141;28;19935;-79
2022/02/01 11:47:53;;;;;;;;;;;12.40;99.90;;;;;;5048662;28;19963;-80
2022/02/01 11:50:20;;;;;;;;;;;12.70;99.90;;;;;;5054441;28;19909;-80
2022/02/01 11:52:51;;;;;;;;;;;12.60;99.90;;;;;;5053220;28;19913;-80
2022/02/01 11:55:18;;;;;;;;;;;12.80;99.90;;;;;;5054460;28;19996;-79
2022/02/01 11:57:44;;;;;;;;;;;12.70;99.90;;;;;;5052832;28;20430;-79
2022/02/01 12:00:15;;;;;;;;;;;12.80;99.90;;;;;;5055494;28;19909;-79
2022/02/01 12:02:46;;;;;;;;;;;12.90;99.90;;;;;;5055459;28;19913;-79
2022/02/01 12:05:12;;;;;;;;;;;12.90;99.90;;;;;;5037475;28;20007;-81
2022/02/01 12:07:50;;;;;;;;;;;12.80;99.90;;;;;;5055381;28;19917;-80
2022/02/01 12:10:17;;;;;;;;;;;13.00;99.90;;;;;;5054257;28;19966;-80
2022/02/01 12:12:43;;;;;;;;;;;13.10;99.90;;;;;;5037372;28;19913;-78
2022/02/01 12:15:09;;;;;;;;;;;13.20;99.90;;;;;;5069380;28;20366;-79
2022/02/01 12:17:37;;;;;;;;;;;13.20;99.90;;;;;;5076174;28;19943;-80
2022/02/01 12:20:04;;;;;;;;;;;13.30;99.90;;;;;;5076357;28;19912;-79
2022/02/01 12:22:32;;;;;;;;;;;13.40;99.90;;;;;;5075696;28;20384;-80
2022/02/01 12:25:02;;;;;;;;;;;13.20;99.90;;;;;;5075683;28;19909;-79
2022/02/01 12:27:34;;;;;;;;;;;13.30;99.90;;;;;;5075264;28;19908;-78
2022/02/01 12:30:00;;;;;;;;;;;13.30;99.90;;;;;;5075486;28;19919;-80
2022/02/01 12:32:26;;;;;;;;;;;13.30;99.90;;;;;;5075452;28;19944;-80
2022/02/01 12:34:51;;;;;;;;;;;13.30;99.90;;;;;;5057537;28;20021;-80
2022/02/01 12:37:21;;;;;;;;;;;13.50;99.90;;;;;;5075442;28;19955;-79
2022/02/01 12:39:56;;;;;;;;;;;13.60;99.90;;;;;;5075427;28;19909;-81
2022/02/01 12:42:31;;;;;;;;;;;13.60;99.90;;;;;;5075645;28;19939;-80
2022/02/01 12:47:41;;;;;;;;;;;13.30;99.90;;;;;;5075585;28;19970;-80
2022/02/01 12:50:10;;;;;;;;;;;13.40;99.90;;;;;;5075468;28;20369;-80
2022/02/01 12:52:38;;;;;;;;;;;13.40;99.90;;;;;;5075093;28;19913;-81
2022/02/01 12:55:03;;;;;;;;;;;13.60;99.90;;;;;;5075137;28;19908;-79
2022/02/01 12:57:30;;;;;;;;;;;13.60;99.90;;;;;;5075316;28;19958;-80
2022/02/01 12:59:57;;;;;;;;;;;13.70;99.90;;;;;;5074958;28;19912;-80
2022/02/01 13:02:30;;;;;;;;;;;13.70;99.90;;;;;;5074921;28;19909;-80
2022/02/01 13:04:57;;;;;;;;;;;13.70;99.90;;;;;;5074878;28;19943;-80
2022/02/01 13:07:30;;;;;;;;;;;13.80;99.90;;;;;;5074772;28;19909;-80
2022/02/01 13:15:29;;;;;;;;;;;13.50;99.90;;;;;;5074453;28;19944;-79
2022/02/01 13:20:57;;;;;;;;;;;13.30;99.90;;;;;;5054870;28;19916;-79
2022/02/01 13:23:33;;;;;;;;;;;13.40;99.90;;;;;;5074693;28;20347;-80
2022/02/01 13:25:59;;;;;;;;;;;13.40;99.90;;;;;;5074527;28;19951;-80
2022/02/01 13:28:26;;;;;;;;;;;13.60;99.90;;;;;;5056464;28;19908;-79
2022/02/01 13:31:02;;;;;;;;;;;13.60;99.90;;;;;;5074273;28;19935;-79
2022/02/01 13:33:27;;;;;;;;;;;13.80;99.90;;;;;;5064039;28;19939;-79
2022/02/01 13:35:54;;;;;;;;;;;13.90;99.90;;;;;;5073102;28;19999;-79
2022/02/01 13:38:22;;;;;;;;;;;14.20;99.90;;;;;;5074015;28;19908;-79
2022/02/01 13:40:48;;;;;;;;;;;14.20;99.90;;;;;;5074706;28;19951;-78
2022/02/01 13:43:15;;;;;;;;;;;14.30;99.90;;;;;;5055294;28;19909;-79
2022/02/01 13:45:41;;;;;;;;;;;14.30;99.90;;;;;;5053142;28;19999;-78
2022/02/01 13:48:11;;;;;;;;;;;14.10;99.90;;;;;;5061663;28;19991;-79
2022/02/01 13:50:37;;;;;;;;;;;14.00;99.90;;;;;;5074075;28;19923;-79
2022/02/01 13:53:04;;;;;;;;;;;14.10;99.90;;;;;;5065562;28;19909;-79
2022/02/01 13:55:31;;;;;;;;;;;13.90;99.90;;;;;;5068131;28;20297;-80
2022/02/01 13:58:08;;;;;;;;;;;13.80;99.90;;;;;;5073512;28;19954;-79
2022/02/01 14:00:35;;;;;;;;;;;13.90;99.90;;;;;;5064333;28;19916;-78
2022/02/01 14:03:14;;;;;;;;;;;13.80;99.90;;;;;;5054092;28;19915;-79
2022/02/01 14:05:41;;;;;;;;;;;13.80;99.90;;;;;;5070896;28;19914;-79
2022/02/01 14:14:32;;;;;;;;;;;13.70;99.90;;;;;;5023371;28;19944;-80
2022/02/01 14:34:56;;;;;;;;;;;13.50;99.90;;;;;;5064083;28;19913;-79
2022/02/01 14:45:13;;;;;;;;;;;13.00;99.90;;;;;;5064357;28;19954;-79
2022/02/01 14:47:38;;;;;;;;;;;13.20;99.90;;;;;;5069260;28;19908;-79
2022/02/01 14:50:05;;;;;;;;;;;13.10;99.90;;;;;;5034827;28;20450;-79
2022/02/01 14:52:33;;;;;;;;;;;13.10;99.90;;;;;;5061679;28;19935;-79
2022/02/01 14:55:06;;;;;;;;;;;13.10;99.90;;;;;;5064774;28;19913;-80
2022/02/01 15:13:39;;;;;;;;;;;12.60;99.90;;;;;;5062302;28;19959;-80
2022/02/01 15:16:05;;;;;;;;;;;12.70;99.90;;;;;;5056475;28;20324;-78
2022/02/01 15:18:31;;;;;;;;;;;12.80;99.90;;;;;;5056352;28;19913;-79
2022/02/01 15:20:57;;;;;;;;;;;12.80;99.90;;;;;;5056768;28;20015;-79
2022/02/01 15:23:22;;;;;;;;;;;12.70;99.90;;;;;;5057920;28;19909;-79
2022/02/01 15:25:48;;;;;;;;;;;12.70;99.90;;;;;;5055467;28;19932;-80
2022/02/01 15:28:15;;;;;;;;;;;12.60;99.90;;;;;;5056102;28;19932;-79
2022/02/01 15:30:40;;;;;;;;;;;12.50;99.90;;;;;;5055742;28;19916;-79
2022/02/01 15:33:06;;;;;;;;;;;12.50;99.90;;;;;;5056372;28;19910;-79
2022/02/01 15:35:32;;;;;;;;;;;12.40;99.90;;;;;;5056067;28;20281;-79
2022/02/01 15:37:58;;;;;;;;;;;12.40;99.90;;;;;;5056547;28;19948;-78
2022/02/01 15:46:46;;;;;;;;;;;12.30;99.90;;;;;;5056425;28;19966;-78
2022/02/01 15:57:10;;;;;;;;;;;12.10;99.90;;;;;;5056121;28;19916;-79
2022/02/01 15:59:38;;;;;;;;;;;12.10;99.90;;;;;;5056793;28;19909;-79
2022/02/01 16:04:34;;;;;;;;;;;12.00;99.90;;;;;;5055605;28;19916;-79
2022/02/01 16:07:06;;;;;;;;;;;12.00;99.90;;;;;;5056137;28;19912;-79
2022/02/01 16:12:00;;;;;;;;;;;11.90;99.90;;;;;;5056366;28;20019;-80
2022/02/01 16:14:25;;;;;;;;;;;11.90;99.90;;;;;;5055697;28;20023;-80
2022/02/01 16:16:51;;;;;;;;;;;11.90;99.90;;;;;;5056160;28;20281;-80
2022/02/01 16:19:17;;;;;;;;;;;11.80;99.90;;;;;;5055752;28;19915;-81
2022/02/01 16:21:42;;;;;;;;;;;11.80;99.90;;;;;;5055903;28;20304;-80
2022/02/01 16:24:08;;;;;;;;;;;11.70;99.90;;;;;;5055753;28;19909;-80
2022/02/01 16:26:34;;;;;;;;;;;11.80;99.90;;;;;;5055705;28;19923;-80
2022/02/01 16:29:00;;;;;;;;;;;11.70;99.90;;;;;;5055492;28;19995;-80
2022/02/01 16:31:31;;;;;;;;;;;11.70;99.90;;;;;;5055475;28;19920;-80
2022/02/01 16:33:59;;;;;;;;;;;11.60;99.90;;;;;;5055553;28;19913;-80
2022/02/01 16:36:24;;;;;;;;;;;11.70;99.90;;;;;;5055529;28;19988;-80
2022/02/01 16:38:50;;;;;;;;;;;11.70;99.90;;;;;;5055728;28;20442;-80
2022/02/01 16:41:16;;;;;;;;;;;11.70;99.90;;;;;;5055343;28;19940;-80
2022/02/01 16:43:42;;;;;;;;;;;11.50;99.90;;;;;;5055933;28;19909;-80
2022/02/01 16:46:08;;;;;;;;;;;11.40;99.90;;;;;;5055255;28;19962;-80
2022/02/01 16:48:34;;;;;;;;;;;11.40;99.90;;;;;;5037353;28;19909;-80
2022/02/01 16:51:00;;;;;;;;;;;11.40;99.90;;;;;;5037256;28;19927;-80
2022/02/01 16:53:34;;;;;;;;;;;11.50;99.90;;;;;;5055087;28;20471;-80
2022/02/01 16:56:07;;;;;;;;;;;11.40;99.90;;;;;;5036977;28;20274;-80
2022/02/01 16:58:38;;;;;;;;;;;11.40;99.90;;;;;;5036886;28;19920;-80
2022/02/01 17:01:05;;;;;;;;;;;11.40;99.90;;;;;;5036757;28;19991;-80
2022/02/01 17:03:31;;;;;;;;;;;11.40;99.90;;;;;;5037065;28;19970;-80
2022/02/01 17:05:57;;;;;;;;;;;11.50;99.90;;;;;;5054913;28;20266;-80
2022/02/01 17:08:24;;;;;;;;;;;11.40;99.90;;;;;;5054810;28;19909;-80